createdAt,value
2017-09-23T00:00:33.751Z,13.4
2017-09-23T00:01:34.548Z,13.3
2017-09-23T00:02:35.693Z,13.4
2017-09-23T00:03:36.439Z,13.2
2017-09-23T00:04:37.117Z,13.2
2017-09-23T00:05:37.926Z,13.2
2017-09-23T00:06:38.734Z,13.3
2017-09-23T00:07:39.784Z,13.3
2017-09-23T00:08:40.555Z,13.2
2017-09-23T00:09:41.292Z,13.3
2017-09-23T00:10:42.036Z,13.2
2017-09-23T00:11:42.774Z,13.3
2017-09-23T00:12:43.975Z,13.3
2017-09-23T00:13:44.716Z,13.2
2017-09-23T00:14:45.449Z,13.2
2017-09-23T00:15:46.179Z,13.3
2017-09-23T00:16:46.923Z,13.2
2017-09-23T00:17:47.672Z,13.2
2017-09-23T00:18:48.724Z,13.4
2017-09-23T00:19:49.553Z,13.2
2017-09-23T00:20:50.274Z,13.2
2017-09-23T00:21:51.016Z,13.3
2017-09-23T00:22:51.823Z,13.2
2017-09-23T00:23:52.854Z,13.2
2017-09-23T00:24:53.592Z,13.2
2017-09-23T00:25:54.334Z,13.2
2017-09-23T00:26:55.134Z,13.3
2017-09-23T00:27:55.873Z,13.2
2017-09-23T00:28:56.798Z,13.2
2017-09-23T00:29:57.542Z,13.2
2017-09-23T00:30:58.293Z,13.3
2017-09-23T00:31:59.084Z,13.2
2017-09-23T00:32:59.814Z,13.2
2017-09-23T00:34:00.799Z,13.2
2017-09-23T00:35:01.584Z,13.3
2017-09-23T00:36:02.328Z,13.2
2017-09-23T00:37:03.062Z,13.2
2017-09-23T00:38:03.783Z,13.3
2017-09-23T00:39:04.517Z,13.3
2017-09-23T00:40:05.244Z,13.3
2017-09-23T00:41:06.233Z,13.2
2017-09-23T00:42:06.976Z,13.2
2017-09-23T00:43:08.245Z,13.2
2017-09-23T00:44:09.578Z,13.2
2017-09-23T00:45:10.271Z,13.3
2017-09-23T00:46:12.366Z,13.3
2017-09-23T00:47:13.355Z,13.2
2017-09-23T00:48:14.157Z,13.3
2017-09-23T00:49:14.992Z,13.3
2017-09-23T00:50:15.712Z,13.3
2017-09-23T00:51:16.526Z,13.2
2017-09-23T00:52:17.309Z,13.0
2017-09-23T00:53:18.444Z,13.2
2017-09-23T00:54:19.174Z,13.2
2017-09-23T00:55:19.903Z,13.1
2017-09-23T00:56:20.701Z,13.1
2017-09-23T00:57:21.493Z,13.1
2017-09-23T00:58:22.524Z,13.1
2017-09-23T00:59:23.343Z,13.0
2017-09-23T01:00:24.075Z,13.1
2017-09-23T01:01:24.814Z,13.0
2017-09-23T01:02:25.548Z,12.9
2017-09-23T01:03:26.683Z,13.0
2017-09-23T01:04:27.413Z,12.9
2017-09-23T01:05:28.177Z,13.0
2017-09-23T01:06:28.926Z,12.9
2017-09-23T01:07:29.744Z,12.9
2017-09-23T01:08:30.783Z,13.0
2017-09-23T01:09:31.515Z,13.0
2017-09-23T01:10:32.314Z,13.0
2017-09-23T01:11:33.081Z,12.9
2017-09-23T01:12:33.933Z,12.9
2017-09-23T01:13:34.966Z,13.0
2017-09-23T01:14:35.703Z,12.8
2017-09-23T01:15:36.443Z,12.9
2017-09-23T01:16:37.167Z,12.8
2017-09-23T01:17:37.911Z,12.8
2017-09-23T01:18:39.123Z,12.8
2017-09-23T01:19:39.858Z,12.8
2017-09-23T01:20:40.666Z,12.8
2017-09-23T01:21:41.453Z,12.7
2017-09-23T01:22:42.193Z,12.8
2017-09-23T01:23:43.283Z,12.8
2017-09-23T01:24:44.023Z,12.8
2017-09-23T01:25:44.752Z,12.8
2017-09-23T01:26:45.484Z,12.7
2017-09-23T01:27:46.222Z,12.7
2017-09-23T01:28:47.251Z,12.7
2017-09-23T01:29:47.993Z,12.6
2017-09-23T01:30:49.438Z,12.7
2017-09-23T01:31:50.491Z,12.6
2017-09-23T01:32:51.975Z,12.7
2017-09-23T01:33:53.386Z,12.6
2017-09-23T01:34:56.082Z,12.6
2017-09-23T01:35:57.866Z,12.6
2017-09-23T01:36:59.494Z,12.6
2017-09-23T01:38:00.175Z,12.6
2017-09-23T01:39:01.271Z,12.5
2017-09-23T01:40:02.004Z,12.7
2017-09-23T01:41:02.733Z,12.6
2017-09-23T01:42:03.464Z,12.5
2017-09-23T01:43:04.205Z,12.6
2017-09-23T01:44:05.001Z,12.5
2017-09-23T01:45:05.993Z,12.5
2017-09-23T01:46:06.756Z,12.5
2017-09-23T01:47:07.568Z,12.5
2017-09-23T01:48:08.306Z,12.5
2017-09-23T01:49:09.104Z,12.5
2017-09-23T01:50:10.099Z,12.4
2017-09-23T01:51:10.892Z,12.4
2017-09-23T01:52:11.649Z,12.4
2017-09-23T01:53:12.443Z,12.4
2017-09-23T01:54:13.173Z,12.3
2017-09-23T01:55:14.204Z,12.5
2017-09-23T01:56:14.936Z,12.4
2017-09-23T01:57:15.663Z,12.4
2017-09-23T01:58:16.425Z,12.4
2017-09-23T01:59:17.151Z,12.3
2017-09-23T02:00:18.335Z,12.4
2017-09-23T02:01:19.123Z,12.3
2017-09-23T02:02:19.854Z,12.2
2017-09-23T02:03:20.666Z,12.3
2017-09-23T02:04:21.455Z,12.3
2017-09-23T02:05:22.606Z,12.2
2017-09-23T02:06:23.335Z,12.2
2017-09-23T02:07:24.077Z,12.1
2017-09-23T02:08:24.868Z,12.2
2017-09-23T02:09:25.601Z,12.2
2017-09-23T02:10:26.746Z,12.1
2017-09-23T02:11:27.562Z,12.1
2017-09-23T02:12:28.237Z,12.1
2017-09-23T02:13:29.054Z,12.2
2017-09-23T02:14:29.848Z,12.1
2017-09-23T02:15:30.589Z,12.1
2017-09-23T02:16:31.774Z,12.0
2017-09-23T02:17:32.505Z,12.0
2017-09-23T02:18:33.228Z,12.0
2017-09-23T02:19:33.969Z,12.0
2017-09-23T02:20:34.747Z,11.9
2017-09-23T02:21:35.550Z,11.9
2017-09-23T02:22:36.264Z,11.8
2017-09-23T02:23:37.003Z,11.8
2017-09-23T02:24:37.743Z,11.8
2017-09-23T02:25:38.480Z,11.8
2017-09-23T02:26:39.669Z,11.7
2017-09-23T02:27:40.411Z,11.7
2017-09-23T02:28:41.142Z,11.7
2017-09-23T02:29:41.889Z,11.7
2017-09-23T02:30:42.624Z,11.8
2017-09-23T02:31:43.675Z,11.8
2017-09-23T02:32:44.513Z,11.7
2017-09-23T02:33:45.304Z,11.6
2017-09-23T02:34:46.039Z,11.6
2017-09-23T02:35:46.773Z,11.6
2017-09-23T02:36:47.805Z,11.6
2017-09-23T02:37:48.599Z,11.6
2017-09-23T02:38:49.325Z,11.5
2017-09-23T02:39:50.146Z,11.5
2017-09-23T02:40:50.858Z,11.5
2017-09-23T02:41:51.845Z,11.5
2017-09-23T02:42:52.635Z,11.5
2017-09-23T02:43:53.453Z,11.4
2017-09-23T02:44:54.188Z,11.5
2017-09-23T02:45:55.006Z,11.4
2017-09-23T02:46:56.154Z,11.4
2017-09-23T02:47:56.889Z,11.4
2017-09-23T02:48:57.670Z,11.3
2017-09-23T02:49:58.476Z,11.3
2017-09-23T02:50:59.212Z,11.2
2017-09-23T02:51:59.977Z,11.3
2017-09-23T02:53:00.757Z,11.2
2017-09-23T02:54:01.574Z,11.1
2017-09-23T02:55:02.654Z,11.2
2017-09-23T02:56:03.465Z,11.1
2017-09-23T02:57:04.208Z,11.1
2017-09-23T02:58:04.925Z,11.2
2017-09-23T02:59:05.648Z,11.2
2017-09-23T03:00:06.741Z,11.1
2017-09-23T03:01:07.478Z,11.1
2017-09-23T03:02:08.285Z,11.1
2017-09-23T03:03:09.079Z,11.1
2017-09-23T03:04:09.847Z,11.1
2017-09-23T03:05:10.615Z,11.1
2017-09-23T03:06:11.404Z,11.0
2017-09-23T03:07:12.180Z,11.0
2017-09-23T03:08:12.924Z,11.0
2017-09-23T03:09:13.749Z,11.0
2017-09-23T03:10:14.483Z,11.1
2017-09-23T03:11:15.287Z,11.1
2017-09-23T03:12:17.789Z,11.0
2017-09-23T03:13:20.069Z,10.9
2017-09-23T03:14:20.230Z,11.0
2017-09-23T03:15:22.528Z,11.0
2017-09-23T03:16:23.744Z,10.9
2017-09-23T03:17:26.285Z,11.0
2017-09-23T03:18:27.026Z,10.9
2017-09-23T03:19:28.170Z,10.9
2017-09-23T03:20:28.864Z,10.9
2017-09-23T03:21:29.637Z,10.9
2017-09-23T03:22:30.721Z,11.0
2017-09-23T03:23:31.454Z,10.9
2017-09-23T03:24:32.180Z,10.9
2017-09-23T03:25:32.916Z,10.9
2017-09-23T03:26:33.653Z,11.1
2017-09-23T03:27:34.456Z,11.0
2017-09-23T03:28:35.190Z,11.1
2017-09-23T03:29:35.926Z,11.2
2017-09-23T03:30:37.031Z,11.2
2017-09-23T03:31:37.796Z,11.2
2017-09-23T03:32:38.540Z,11.3
2017-09-23T03:33:39.366Z,11.3
2017-09-23T03:34:40.100Z,11.3
2017-09-23T03:35:41.191Z,11.3
2017-09-23T03:36:41.927Z,11.4
2017-09-23T03:37:42.736Z,11.3
2017-09-23T03:38:43.520Z,11.4
2017-09-23T03:39:44.262Z,11.4
2017-09-23T03:40:45.428Z,11.5
2017-09-23T03:41:46.215Z,11.4
2017-09-23T03:42:47.034Z,11.5
2017-09-23T03:43:47.814Z,11.5
2017-09-23T03:44:48.549Z,11.5
2017-09-23T03:45:49.754Z,11.5
2017-09-23T03:46:50.487Z,11.5
2017-09-23T03:47:51.265Z,11.5
2017-09-23T03:48:52.074Z,11.7
2017-09-23T03:49:52.831Z,11.6
2017-09-23T03:50:54.026Z,11.7
2017-09-23T03:51:54.821Z,11.6
2017-09-23T03:52:55.565Z,11.7
2017-09-23T03:53:56.362Z,11.7
2017-09-23T03:54:57.101Z,11.8
2017-09-23T03:55:58.041Z,11.7
2017-09-23T03:56:58.774Z,11.7
2017-09-23T03:57:59.495Z,11.7
2017-09-23T03:59:00.294Z,11.8
2017-09-23T04:00:01.024Z,11.8
2017-09-23T04:01:02.158Z,11.8
2017-09-23T04:02:02.899Z,11.9
2017-09-23T04:03:03.669Z,11.8
2017-09-23T04:04:04.477Z,11.8
2017-09-23T04:05:05.286Z,11.8
2017-09-23T04:06:07.367Z,11.8
2017-09-23T04:07:09.593Z,11.8
2017-09-23T04:08:09.800Z,11.9
2017-09-23T04:09:10.571Z,11.8
2017-09-23T04:10:11.315Z,11.9
2017-09-23T04:11:12.420Z,11.9
2017-09-23T04:12:13.149Z,11.9
2017-09-23T04:13:13.971Z,11.9
2017-09-23T04:14:14.730Z,11.9
2017-09-23T04:15:15.465Z,11.9
2017-09-23T04:16:16.132Z,11.9
2017-09-23T04:17:16.865Z,11.9
2017-09-23T04:18:17.672Z,11.9
2017-09-23T04:19:18.779Z,11.9
2017-09-23T04:20:19.515Z,11.9
2017-09-23T04:21:20.240Z,12.0
2017-09-23T04:22:20.980Z,12.0
2017-09-23T04:23:21.712Z,11.9
2017-09-23T04:24:22.846Z,11.9
2017-09-23T04:25:23.581Z,11.9
2017-09-23T04:26:24.312Z,11.9
2017-09-23T04:27:25.065Z,12.0
2017-09-23T04:28:25.790Z,12.0
2017-09-23T04:29:26.542Z,12.0
2017-09-23T04:30:27.283Z,11.9
2017-09-23T04:31:28.087Z,11.9
2017-09-23T04:32:28.824Z,11.9
2017-09-23T04:33:29.552Z,12.0
2017-09-23T04:34:30.582Z,12.0
2017-09-23T04:35:31.413Z,12.0
2017-09-23T04:36:32.201Z,12.0
2017-09-23T04:37:32.944Z,12.0
2017-09-23T04:38:33.675Z,12.0
2017-09-23T04:39:34.405Z,12.0
2017-09-23T04:40:35.147Z,12.0
2017-09-23T04:41:35.960Z,12.1
2017-09-23T04:42:36.945Z,12.1
2017-09-23T04:43:37.671Z,12.1
2017-09-23T04:44:38.420Z,12.1
2017-09-23T04:45:39.198Z,12.1
2017-09-23T04:46:39.925Z,12.1
2017-09-23T04:47:41.066Z,12.1
2017-09-23T04:48:41.866Z,12.0
2017-09-23T04:49:42.604Z,12.1
2017-09-23T04:50:43.421Z,12.1
2017-09-23T04:51:44.144Z,12.1
2017-09-23T04:52:45.043Z,12.1
2017-09-23T04:53:45.844Z,12.1
2017-09-23T04:54:46.585Z,12.2
2017-09-23T04:55:47.312Z,12.1
2017-09-23T04:56:48.047Z,12.1
2017-09-23T04:57:49.126Z,12.2
2017-09-23T04:58:49.872Z,12.2
2017-09-23T04:59:50.542Z,12.2
2017-09-23T05:00:51.264Z,12.2
2017-09-23T05:01:52.063Z,12.1
2017-09-23T05:02:53.122Z,12.2
2017-09-23T05:03:53.856Z,12.3
2017-09-23T05:04:54.652Z,12.3
2017-09-23T05:05:55.445Z,12.3
2017-09-23T05:06:56.178Z,12.3
2017-09-23T05:07:57.235Z,12.3
2017-09-23T05:08:57.969Z,12.2
2017-09-23T05:09:58.759Z,12.4
2017-09-23T05:10:59.490Z,12.3
2017-09-23T05:12:00.232Z,12.3
2017-09-23T05:13:01.365Z,12.4
2017-09-23T05:14:02.101Z,12.3
2017-09-23T05:15:02.834Z,12.3
2017-09-23T05:16:03.566Z,12.4
2017-09-23T05:17:04.357Z,12.3
2017-09-23T05:18:05.492Z,12.4
2017-09-23T05:19:06.246Z,12.4
2017-09-23T05:20:06.986Z,12.4
2017-09-23T05:21:07.712Z,12.4
2017-09-23T05:22:08.452Z,12.4
2017-09-23T05:23:09.423Z,12.4
2017-09-23T05:24:10.233Z,12.5
2017-09-23T05:25:10.972Z,12.5
2017-09-23T05:26:11.732Z,12.4
2017-09-23T05:27:12.528Z,12.4
2017-09-23T05:28:13.621Z,12.4
2017-09-23T05:29:14.348Z,12.4
2017-09-23T05:30:15.097Z,12.4
2017-09-23T05:31:15.919Z,12.5
2017-09-23T05:32:16.675Z,12.5
2017-09-23T05:33:17.810Z,12.5
2017-09-23T05:34:18.611Z,12.5
2017-09-23T05:35:19.447Z,12.5
2017-09-23T05:36:20.234Z,12.5
2017-09-23T05:37:21.042Z,12.6
2017-09-23T05:38:22.122Z,12.6
2017-09-23T05:39:23.208Z,12.5
2017-09-23T05:40:23.872Z,12.6
2017-09-23T05:41:24.702Z,12.6
2017-09-23T05:42:25.435Z,12.6
2017-09-23T05:43:26.494Z,12.6
2017-09-23T05:44:27.852Z,12.6
2017-09-23T05:45:29.074Z,12.6
2017-09-23T05:46:30.440Z,12.6
2017-09-23T05:47:31.316Z,12.6
2017-09-23T05:48:33.101Z,12.7
2017-09-23T05:49:34.660Z,12.6
2017-09-23T05:50:35.361Z,12.7
2017-09-23T05:51:36.148Z,12.7
2017-09-23T05:52:36.894Z,12.7
2017-09-23T05:53:37.886Z,12.8
2017-09-23T05:54:38.650Z,12.7
2017-09-23T05:55:39.453Z,12.8
2017-09-23T05:56:40.262Z,12.8
2017-09-23T05:57:40.995Z,12.8
2017-09-23T05:58:42.090Z,12.8
2017-09-23T05:59:42.882Z,12.8
2017-09-23T06:00:43.634Z,12.8
2017-09-23T06:01:44.444Z,12.9
2017-09-23T06:02:45.194Z,12.8
2017-09-23T06:03:46.253Z,12.9
2017-09-23T06:04:46.982Z,12.9
2017-09-23T06:05:47.723Z,12.9
2017-09-23T06:06:48.549Z,12.9
2017-09-23T06:07:49.273Z,13.0
2017-09-23T06:08:50.352Z,12.9
2017-09-23T06:09:51.095Z,12.9
2017-09-23T06:10:51.831Z,12.9
2017-09-23T06:11:52.572Z,13.0
2017-09-23T06:12:53.313Z,12.9
2017-09-23T06:13:54.437Z,13.0
2017-09-23T06:14:55.260Z,13.0
2017-09-23T06:15:56.026Z,13.0
2017-09-23T06:16:56.735Z,13.1
2017-09-23T06:17:57.475Z,13.1
2017-09-23T06:18:58.303Z,13.0
2017-09-23T06:19:59.512Z,13.2
2017-09-23T06:21:00.247Z,13.1
2017-09-23T06:22:00.994Z,13.1
2017-09-23T06:23:01.803Z,13.1
2017-09-23T06:24:02.572Z,13.2
2017-09-23T06:25:03.624Z,13.2
2017-09-23T06:26:04.373Z,13.2
2017-09-23T06:27:05.170Z,13.4
2017-09-23T06:28:05.924Z,13.3
2017-09-23T06:29:06.731Z,13.3
2017-09-23T06:30:07.485Z,13.3
2017-09-23T06:31:08.676Z,13.4
2017-09-23T06:32:09.447Z,13.4
2017-09-23T06:33:10.275Z,13.4
2017-09-23T06:34:11.014Z,13.5
2017-09-23T06:35:11.836Z,13.4
2017-09-23T06:36:13.044Z,13.4
2017-09-23T06:37:13.842Z,13.5
2017-09-23T06:38:14.593Z,13.5
2017-09-23T06:39:15.386Z,13.5
2017-09-23T06:40:16.195Z,13.6
2017-09-23T06:41:17.240Z,13.6
2017-09-23T06:42:17.952Z,13.5
2017-09-23T06:43:18.738Z,13.6
2017-09-23T06:44:19.477Z,13.6
2017-09-23T06:45:20.268Z,13.5
2017-09-23T06:46:21.202Z,13.6
2017-09-23T06:47:21.950Z,13.5
2017-09-23T06:48:22.686Z,13.5
2017-09-23T06:49:23.437Z,13.6
2017-09-23T06:50:24.199Z,13.6
2017-09-23T06:51:25.290Z,13.7
2017-09-23T06:52:26.028Z,13.7
2017-09-23T06:53:26.747Z,13.7
2017-09-23T06:54:27.485Z,13.8
2017-09-23T06:55:28.280Z,13.7
2017-09-23T06:56:29.383Z,13.7
2017-09-23T06:57:30.124Z,13.9
2017-09-23T06:58:30.936Z,13.7
2017-09-23T06:59:31.663Z,13.7
2017-09-23T07:00:32.466Z,13.8
2017-09-23T07:01:33.508Z,13.9
2017-09-23T07:02:34.246Z,13.8
2017-09-23T07:03:35.004Z,13.9
2017-09-23T07:04:35.787Z,13.8
2017-09-23T07:05:36.530Z,13.9
2017-09-23T07:06:37.745Z,13.9
2017-09-23T07:07:38.496Z,14.1
2017-09-23T07:08:39.245Z,13.9
2017-09-23T07:09:39.985Z,13.9
2017-09-23T07:10:40.727Z,13.9
2017-09-23T07:11:41.540Z,14.0
2017-09-23T07:12:42.558Z,14.0
2017-09-23T07:13:43.351Z,14.0
2017-09-23T07:14:44.087Z,14.0
2017-09-23T07:15:44.826Z,14.2
2017-09-23T07:16:45.565Z,14.1
2017-09-23T07:17:46.556Z,14.1
2017-09-23T07:18:47.291Z,14.1
2017-09-23T07:19:48.032Z,14.1
2017-09-23T07:20:48.775Z,14.2
2017-09-23T07:21:49.511Z,14.3
2017-09-23T07:22:50.657Z,14.2
2017-09-23T07:23:51.405Z,14.2
2017-09-23T07:24:52.158Z,14.3
2017-09-23T07:25:52.978Z,14.3
2017-09-23T07:26:53.789Z,14.3
2017-09-23T07:27:54.871Z,14.3
2017-09-23T07:28:55.617Z,14.3
2017-09-23T07:29:56.415Z,14.3
2017-09-23T07:30:57.147Z,14.4
2017-09-23T07:31:57.895Z,14.3
2017-09-23T07:32:59.061Z,14.3
2017-09-23T07:33:59.805Z,14.4
2017-09-23T07:35:00.546Z,14.4
2017-09-23T07:36:01.296Z,14.4
2017-09-23T07:37:02.044Z,14.4
2017-09-23T07:38:03.193Z,14.5
2017-09-23T07:39:03.933Z,14.5
2017-09-23T07:40:04.656Z,14.5
2017-09-23T07:41:05.406Z,14.6
2017-09-23T07:42:06.231Z,14.7
2017-09-23T07:43:07.246Z,14.7
2017-09-23T07:44:08.031Z,14.7
2017-09-23T07:45:08.778Z,14.8
2017-09-23T07:46:09.561Z,14.8
2017-09-23T07:47:10.302Z,14.8
2017-09-23T07:48:11.450Z,14.8
2017-09-23T07:49:12.219Z,14.9
2017-09-23T07:50:12.905Z,14.9
2017-09-23T07:51:13.638Z,15.0
2017-09-23T07:52:14.383Z,15.0
2017-09-23T07:53:15.112Z,14.9
2017-09-23T07:54:15.850Z,14.9
2017-09-23T07:55:17.032Z,15.0
2017-09-23T07:56:17.779Z,14.9
2017-09-23T07:57:18.474Z,15.0
2017-09-23T07:58:19.262Z,14.9
2017-09-23T07:59:20.000Z,15.0
2017-09-23T08:00:21.013Z,14.9
2017-09-23T08:01:21.754Z,14.8
2017-09-23T08:02:22.501Z,14.8
2017-09-23T08:03:23.237Z,14.9
2017-09-23T08:04:23.983Z,15.0
2017-09-23T08:05:25.075Z,15.0
2017-09-23T08:06:25.825Z,15.0
2017-09-23T08:07:26.625Z,15.1
2017-09-23T08:08:27.394Z,15.1
2017-09-23T08:09:28.140Z,15.2
2017-09-23T08:10:29.181Z,15.1
2017-09-23T08:11:29.932Z,15.3
2017-09-23T08:12:30.672Z,15.3
2017-09-23T08:13:31.424Z,15.3
2017-09-23T08:14:32.159Z,15.1
2017-09-23T08:15:33.304Z,15.2
2017-09-23T08:16:34.112Z,15.2
2017-09-23T08:17:34.847Z,15.2
2017-09-23T08:18:35.595Z,15.3
2017-09-23T08:19:36.349Z,15.4
2017-09-23T08:20:37.088Z,15.5
2017-09-23T08:21:37.823Z,15.6
2017-09-23T08:22:38.563Z,15.6
2017-09-23T08:23:39.376Z,15.6
2017-09-23T08:24:40.112Z,15.6
2017-09-23T08:25:40.859Z,15.6
2017-09-23T08:26:41.608Z,15.8
2017-09-23T08:27:42.355Z,15.8
2017-09-23T08:28:43.110Z,15.7
2017-09-23T08:29:44.295Z,15.6
2017-09-23T08:30:45.118Z,15.7
2017-09-23T08:31:45.862Z,15.6
2017-09-23T08:32:46.606Z,15.7
2017-09-23T08:33:47.341Z,15.8
2017-09-23T08:34:48.085Z,15.8
2017-09-23T08:35:49.242Z,15.8
2017-09-23T08:36:50.018Z,15.8
2017-09-23T08:37:50.817Z,15.7
2017-09-23T08:38:51.548Z,15.9
2017-09-23T08:39:52.360Z,15.9
2017-09-23T08:40:53.096Z,16.0
2017-09-23T08:41:54.238Z,16.1
2017-09-23T08:42:55.058Z,16.2
2017-09-23T08:43:55.875Z,16.2
2017-09-23T08:44:56.607Z,16.2
2017-09-23T08:45:57.349Z,16.1
2017-09-23T08:46:58.454Z,16.2
2017-09-23T08:47:59.236Z,16.0
2017-09-23T08:48:59.983Z,16.0
2017-09-23T08:50:00.769Z,16.0
2017-09-23T08:51:01.611Z,15.9
2017-09-23T08:52:02.351Z,15.9
2017-09-23T08:53:03.090Z,15.9
2017-09-23T08:54:04.245Z,15.9
2017-09-23T08:55:04.972Z,16.0
2017-09-23T08:56:05.715Z,16.0
2017-09-23T08:57:06.450Z,16.0
2017-09-23T08:58:07.202Z,16.0
2017-09-23T08:59:08.257Z,15.8
2017-09-23T09:00:09.065Z,15.9
2017-09-23T09:01:09.866Z,15.8
2017-09-23T09:02:10.605Z,15.7
2017-09-23T09:03:11.338Z,16.0
2017-09-23T09:04:12.572Z,15.9
2017-09-23T09:05:13.323Z,16.1
2017-09-23T09:06:14.146Z,16.2
2017-09-23T09:07:14.895Z,16.4
2017-09-23T09:08:15.690Z,16.4
2017-09-23T09:09:16.889Z,16.4
2017-09-23T09:10:17.590Z,16.5
2017-09-23T09:11:18.383Z,16.5
2017-09-23T09:12:19.195Z,16.6
2017-09-23T09:13:19.936Z,16.7
2017-09-23T09:14:21.105Z,16.7
2017-09-23T09:15:21.846Z,16.7
2017-09-23T09:16:22.676Z,16.7
2017-09-23T09:17:23.420Z,16.7
2017-09-23T09:18:24.153Z,16.8
2017-09-23T09:19:24.975Z,16.7
2017-09-23T09:20:25.853Z,16.6
2017-09-23T09:21:26.634Z,16.6
2017-09-23T09:22:27.431Z,16.7
2017-09-23T09:23:28.168Z,16.7
2017-09-23T09:24:28.914Z,16.7
2017-09-23T09:25:30.006Z,16.8
2017-09-23T09:26:30.734Z,16.7
2017-09-23T09:27:31.471Z,16.8
2017-09-23T09:28:32.193Z,16.8
2017-09-23T09:29:32.933Z,16.7
2017-09-23T09:30:33.978Z,16.8
2017-09-23T09:31:34.706Z,16.8
2017-09-23T09:32:35.454Z,17.0
2017-09-23T09:33:36.230Z,17.2
2017-09-23T09:34:36.999Z,17.3
2017-09-23T09:35:38.091Z,17.5
2017-09-23T09:36:38.834Z,17.7
2017-09-23T09:37:39.663Z,17.8
2017-09-23T09:38:40.447Z,17.9
2017-09-23T09:39:41.194Z,17.8
2017-09-23T09:40:42.344Z,17.8
2017-09-23T09:41:43.021Z,17.9
2017-09-23T09:42:43.752Z,17.9
2017-09-23T09:43:44.510Z,17.8
2017-09-23T09:44:45.286Z,17.7
2017-09-23T09:45:46.462Z,17.7
2017-09-23T09:46:47.204Z,17.7
2017-09-23T09:47:47.944Z,17.7
2017-09-23T09:48:48.673Z,17.6
2017-09-23T09:49:49.442Z,17.6
2017-09-23T09:50:50.531Z,17.6
2017-09-23T09:51:51.285Z,17.6
2017-09-23T09:52:52.030Z,17.4
2017-09-23T09:53:52.824Z,17.6
2017-09-23T09:54:53.629Z,17.4
2017-09-23T09:55:54.674Z,17.2
2017-09-23T09:56:55.406Z,17.2
2017-09-23T09:57:56.145Z,17.0
2017-09-23T09:58:56.945Z,17.0
2017-09-23T09:59:57.708Z,17.1
2017-09-23T10:00:58.494Z,17.1
2017-09-23T10:01:59.287Z,17.2
2017-09-23T10:03:00.495Z,17.2
2017-09-23T10:04:01.245Z,17.3
2017-09-23T10:05:02.065Z,17.3
2017-09-23T10:06:02.799Z,17.3
2017-09-23T10:07:03.540Z,17.5
2017-09-23T10:08:04.627Z,17.5
2017-09-23T10:09:05.435Z,17.5
2017-09-23T10:10:06.211Z,17.5
2017-09-23T10:11:06.953Z,17.6
2017-09-23T10:12:07.742Z,17.6
2017-09-23T10:13:08.803Z,17.5
2017-09-23T10:14:09.559Z,17.4
2017-09-23T10:15:10.346Z,17.5
2017-09-23T10:16:11.153Z,17.7
2017-09-23T10:17:11.909Z,17.6
2017-09-23T10:18:12.951Z,17.7
2017-09-23T10:19:13.700Z,17.7
2017-09-23T10:20:14.450Z,17.8
2017-09-23T10:21:15.190Z,17.9
2017-09-23T10:22:15.935Z,18.1
2017-09-23T10:23:16.659Z,18.0
2017-09-23T10:24:17.405Z,18.2
2017-09-23T10:25:18.207Z,18.2
2017-09-23T10:26:19.369Z,18.4
2017-09-23T10:27:20.190Z,18.4
2017-09-23T10:28:20.942Z,18.5
2017-09-23T10:29:21.664Z,18.5
2017-09-23T10:30:22.406Z,18.5
2017-09-23T10:31:23.299Z,18.6
2017-09-23T10:32:24.641Z,18.5
2017-09-23T10:33:25.440Z,18.7
2017-09-23T10:34:26.186Z,18.7
2017-09-23T10:35:26.937Z,18.7
2017-09-23T10:36:27.673Z,18.7
2017-09-23T10:37:28.841Z,18.6
2017-09-23T10:38:29.572Z,18.6
2017-09-23T10:39:30.374Z,18.5
2017-09-23T10:40:31.161Z,18.2
2017-09-23T10:41:31.894Z,18.0
2017-09-23T10:42:32.994Z,17.9
2017-09-23T10:43:33.738Z,17.6
2017-09-23T10:44:34.470Z,17.3
2017-09-23T10:45:35.220Z,17.3
2017-09-23T10:46:35.960Z,17.3
2017-09-23T10:47:37.017Z,17.1
2017-09-23T10:48:37.840Z,17.1
2017-09-23T10:49:38.655Z,17.0
2017-09-23T10:50:39.407Z,17.1
2017-09-23T10:51:40.194Z,17.2
2017-09-23T10:52:41.135Z,17.3
2017-09-23T10:53:41.876Z,17.3
2017-09-23T10:54:42.633Z,17.4
2017-09-23T10:55:43.441Z,17.5
2017-09-23T10:56:44.244Z,17.6
2017-09-23T10:57:44.991Z,17.8
2017-09-23T10:58:45.720Z,17.9
2017-09-23T10:59:46.468Z,18.1
2017-09-23T11:00:47.221Z,18.3
2017-09-23T11:01:48.024Z,18.5
2017-09-23T11:02:49.203Z,18.6
2017-09-23T11:03:49.961Z,18.7
2017-09-23T11:04:50.751Z,19.0
2017-09-23T11:05:52.146Z,19.0
2017-09-23T11:06:52.833Z,19.1
2017-09-23T11:07:53.650Z,19.2
2017-09-23T11:08:54.424Z,19.2
2017-09-23T11:09:55.205Z,19.2
2017-09-23T11:10:56.134Z,19.2
2017-09-23T11:11:57.323Z,19.3
2017-09-23T11:12:58.394Z,19.3
2017-09-23T11:13:59.069Z,19.2
2017-09-23T11:15:00.017Z,19.1
2017-09-23T11:16:00.881Z,19.2
2017-09-23T11:17:01.621Z,19.3
2017-09-23T11:18:02.730Z,19.2
2017-09-23T11:19:03.529Z,19.4
2017-09-23T11:20:04.270Z,19.5
2017-09-23T11:21:05.018Z,19.5
2017-09-23T11:22:05.932Z,19.5
2017-09-23T11:23:06.992Z,19.5
2017-09-23T11:24:07.737Z,19.5
2017-09-23T11:25:08.547Z,19.4
2017-09-23T11:26:09.305Z,19.4
2017-09-23T11:27:10.053Z,19.2
2017-09-23T11:28:11.092Z,19.2
2017-09-23T11:29:11.905Z,19.0
2017-09-23T11:30:12.641Z,18.8
2017-09-23T11:31:13.403Z,18.7
2017-09-23T11:32:14.197Z,18.5
2017-09-23T11:33:15.196Z,18.6
2017-09-23T11:34:15.930Z,18.5
2017-09-23T11:35:16.672Z,18.7
2017-09-23T11:36:17.494Z,18.9
2017-09-23T11:37:18.246Z,18.9
2017-09-23T11:38:19.444Z,19.0
2017-09-23T11:39:20.193Z,19.1
2017-09-23T11:40:20.984Z,19.5
2017-09-23T11:41:21.722Z,19.8
2017-09-23T11:42:22.532Z,19.8
2017-09-23T11:43:23.473Z,20.0
2017-09-23T11:44:24.228Z,20.2
2017-09-23T11:45:25.020Z,20.4
2017-09-23T11:46:25.820Z,20.4
2017-09-23T11:47:26.624Z,20.4
2017-09-23T11:48:27.370Z,20.3
2017-09-23T11:49:28.364Z,20.3
2017-09-23T11:50:29.106Z,20.2
2017-09-23T11:51:29.935Z,20.2
2017-09-23T11:52:30.686Z,20.1
2017-09-23T11:53:31.487Z,19.7
2017-09-23T11:54:32.475Z,19.7
2017-09-23T11:55:33.215Z,19.6
2017-09-23T11:56:33.966Z,19.5
2017-09-23T11:57:34.791Z,19.6
2017-09-23T11:58:35.516Z,19.7
2017-09-23T11:59:36.527Z,19.6
2017-09-23T12:00:37.312Z,19.4
2017-09-23T12:01:38.057Z,19.3
2017-09-23T12:02:38.805Z,19.2
2017-09-23T12:03:39.564Z,19.2
2017-09-23T12:04:40.735Z,19.1
2017-09-23T12:05:41.575Z,19.0
2017-09-23T12:06:42.368Z,19.0
2017-09-23T12:07:43.115Z,19.0
2017-09-23T12:08:43.854Z,19.2
2017-09-23T12:09:44.984Z,19.1
2017-09-23T12:10:45.723Z,19.2
2017-09-23T12:11:46.522Z,19.1
2017-09-23T12:12:47.266Z,19.1
2017-09-23T12:13:48.006Z,19.0
2017-09-23T12:14:49.148Z,19.1
2017-09-23T12:15:49.934Z,19.1
2017-09-23T12:16:50.755Z,19.0
2017-09-23T12:17:51.534Z,19.0
2017-09-23T12:18:52.363Z,18.8
2017-09-23T12:19:53.436Z,18.5
2017-09-23T12:20:54.212Z,18.5
2017-09-23T12:21:55.016Z,18.6
2017-09-23T12:22:55.760Z,18.6
2017-09-23T12:23:56.553Z,18.6
2017-09-23T12:24:57.653Z,18.5
2017-09-23T12:25:58.449Z,18.5
2017-09-23T12:26:59.237Z,18.5
2017-09-23T12:28:00.013Z,18.6
2017-09-23T12:29:00.771Z,18.7
2017-09-23T12:30:01.928Z,18.7
2017-09-23T12:31:02.724Z,18.6
2017-09-23T12:32:03.523Z,18.7
2017-09-23T12:33:04.277Z,18.8
2017-09-23T12:34:05.103Z,19.0
2017-09-23T12:35:05.850Z,19.1
2017-09-23T12:36:06.595Z,19.2
2017-09-23T12:37:07.394Z,19.2
2017-09-23T12:38:08.144Z,19.2
2017-09-23T12:39:09.135Z,19.3
2017-09-23T12:40:09.882Z,19.4
2017-09-23T12:41:10.632Z,19.5
2017-09-23T12:42:11.436Z,19.7
2017-09-23T12:43:12.184Z,19.8
2017-09-23T12:44:12.934Z,20.0
2017-09-23T12:45:13.989Z,20.3
2017-09-23T12:46:14.781Z,20.4
2017-09-23T12:47:15.515Z,20.6
2017-09-23T12:48:16.291Z,20.7
2017-09-23T12:49:17.018Z,20.8
2017-09-23T12:50:18.110Z,20.9
2017-09-23T12:51:18.861Z,21.1
2017-09-23T12:52:19.648Z,21.0
2017-09-23T12:53:20.397Z,21.0
2017-09-23T12:54:21.208Z,20.6
2017-09-23T12:55:22.312Z,20.6
2017-09-23T12:56:23.166Z,20.6
2017-09-23T12:57:23.981Z,20.7
2017-09-23T12:58:24.737Z,20.6
2017-09-23T12:59:25.549Z,20.6
2017-09-23T13:00:26.755Z,20.8
2017-09-23T13:01:27.548Z,20.8
2017-09-23T13:02:28.361Z,20.8
2017-09-23T13:03:29.175Z,20.9
2017-09-23T13:04:29.925Z,20.6
2017-09-23T13:05:31.015Z,20.6
2017-09-23T13:06:31.811Z,20.4
2017-09-23T13:07:32.551Z,20.5
2017-09-23T13:08:33.294Z,20.5
2017-09-23T13:09:34.103Z,20.5
2017-09-23T13:10:35.258Z,20.2
2017-09-23T13:11:36.071Z,20.3
2017-09-23T13:12:36.826Z,20.3
2017-09-23T13:14:51.861Z,20.4
2017-09-23T13:15:53.055Z,20.3
2017-09-23T13:16:53.823Z,20.3
2017-09-23T13:17:54.631Z,20.4
2017-09-23T13:18:55.367Z,20.4
2017-09-23T13:19:56.182Z,20.4
2017-09-23T13:20:57.294Z,20.3
2017-09-23T13:21:58.046Z,20.3
2017-09-23T13:22:58.846Z,20.3
2017-09-23T13:23:59.580Z,20.3
2017-09-23T13:25:00.325Z,20.3
2017-09-23T13:26:01.421Z,20.3
2017-09-23T13:27:02.186Z,20.2
2017-09-23T13:28:02.956Z,20.2
2017-09-23T13:29:03.765Z,20.3
2017-09-23T13:30:04.550Z,20.3
2017-09-23T13:31:05.643Z,20.3